Time;durP1;ratioP1;P1;durP2;ratioP2;P2;SDS_P1;SDS_P2;PMS_P1;PMS_P2;Temp;Humidity;BMP_temperature;BMP_pressure;BME280_temperature;BME280_humidity;BME280_pressure;Samples;Min_cycle;Max_cycle;Signal;HPM_P1;HPM_P2
2023/01/08 00:01:49;;;;;;;;;;;;;;;11.85;100.00;98268.59;5073670;28;19916;-75
2023/01/08 00:04:16;;;;;;;;;;;;;;;12.01;100.00;98279.03;5054577;28;19920;-76
2023/01/08 00:06:41;;;;;;;;;;;;;;;12.30;100.00;98275.00;5057005;28;19924;-76
2023/01/08 00:09:08;;;;;;;;;;;;;;;11.96;100.00;98260.34;5054235;28;19947;-75
2023/01/08 00:11:33;;;;;;;;;;;;;;;11.67;100.00;98262.56;5071445;28;20370;-75
2023/01/08 00:13:58;;;;;;;;;;;;;;;11.44;100.00;98267.09;5071151;28;19931;-75
2023/01/08 00:16:23;;;;;;;;;;;;;;;11.76;100.00;98258.72;5075339;28;19924;-73
2023/01/08 00:18:49;;;;;;;;;;;;;;;11.60;100.00;98258.63;5071486;28;19947;-73
2023/01/08 00:21:14;;;;;;;;;;;;;;;11.51;100.00;98275.38;5070958;28;19916;-74
2023/01/08 00:23:39;;;;;;;;;;;;;;;11.51;100.00;98275.38;5070932;28;19920;-74
2023/01/08 00:26:08;;;;;;;;;;;;;;;11.66;100.00;98284.97;5071320;28;19978;-74
2023/01/08 00:28:33;;;;;;;;;;;;;;;11.76;100.00;98269.03;5072147;28;19920;-73
2023/01/08 00:31:00;;;;;;;;;;;;;;;11.64;100.00;98268.72;5071646;28;19924;-73
2023/01/08 00:33:25;;;;;;;;;;;;;;;11.86;100.00;98270.25;5071824;28;19921;-74
2023/01/08 00:35:50;;;;;;;;;;;;;;;11.73;100.00;98270.84;5054164;28;20576;-73
2023/01/08 00:38:15;;;;;;;;;;;;;;;11.81;100.00;98265.31;5058986;28;19943;-73
2023/01/08 00:40:41;;;;;;;;;;;;;;;11.95;100.00;98253.50;5054783;28;20183;-73
2023/01/08 00:43:06;;;;;;;;;;;;;;;11.87;100.00;98235.81;5050577;28;20011;-74
2023/01/08 00:45:32;;;;;;;;;;;;;;;11.53;100.00;98242.59;5052870;28;19921;-74
2023/01/08 00:47:57;;;;;;;;;;;;;;;11.70;100.00;98245.22;5051464;28;20485;-73
2023/01/08 00:50:22;;;;;;;;;;;;;;;11.46;100.00;98251.53;5072326;28;19928;-74
2023/01/08 00:52:47;;;;;;;;;;;;;;;11.58;100.00;98255.28;5052484;28;19917;-74
2023/01/08 00:55:13;;;;;;;;;;;;;;;11.30;100.00;98260.00;5071439;28;19920;-74
2023/01/08 00:57:38;;;;;;;;;;;;;;;11.75;100.00;98272.53;5070477;28;19939;-74
2023/01/08 01:00:04;;;;;;;;;;;;;;;12.16;100.00;98280.84;5071561;28;19924;-74
2023/01/08 01:02:30;;;;;;;;;;;;;;;12.14;100.00;98265.44;5071374;28;19957;-74
2023/01/08 01:04:55;;;;;;;;;;;;;;;12.48;100.00;98263.72;5071078;28;20271;-74
2023/01/08 01:07:20;;;;;;;;;;;;;;;12.11;100.00;98244.09;5070679;28;19978;-74
2023/01/08 01:09:45;;;;;;;;;;;;;;;12.16;100.00;98262.78;5053146;28;19920;-74
2023/01/08 01:12:11;;;;;;;;;;;;;;;11.60;100.00;98267.19;5051279;28;19947;-73
2023/01/08 01:14:36;;;;;;;;;;;;;;;11.67;100.00;98289.19;5070752;28;19924;-73
2023/01/08 01:17:01;;;;;;;;;;;;;;;12.31;100.00;98286.97;5052955;28;19920;-73
2023/01/08 01:19:27;;;;;;;;;;;;;;;12.27;100.00;98269.97;5071333;28;19971;-73
2023/01/08 01:21:52;;;;;;;;;;;;;;;12.18;100.00;98255.78;5051351;28;20459;-74
2023/01/08 01:24:17;;;;;;;;;;;;;;;12.41;100.00;98254.63;5070991;28;19916;-74
2023/01/08 01:26:42;;;;;;;;;;;;;;;12.28;100.00;98243.25;5071281;28;19992;-74
2023/01/08 01:29:08;;;;;;;;;;;;;;;12.26;100.00;98242.50;5070970;28;19920;-74
2023/01/08 01:31:33;;;;;;;;;;;;;;;12.53;100.00;98250.56;5069606;28;19966;-73
2023/01/08 01:33:59;;;;;;;;;;;;;;;12.23;100.00;98234.91;5054723;28;19963;-73
2023/01/08 01:36:24;;;;;;;;;;;;;;;12.03;100.00;98236.75;5051812;28;19920;-73
2023/01/08 01:38:50;;;;;;;;;;;;;;;12.10;100.00;98238.09;5070587;28;19982;-73
2023/01/08 01:41:26;;;;;;;;;;;;;;;11.98;100.00;98232.72;5052387;28;19954;-73
2023/01/08 01:43:52;;;;;;;;;;;;;;;12.13;100.00;98248.28;5050061;28;20297;-73
2023/01/08 01:46:20;;;;;;;;;;;;;;;12.00;100.00;98248.97;5072370;28;20003;-73
2023/01/08 01:48:45;;;;;;;;;;;;;;;12.03;100.00;98235.91;5052459;28;20122;-74
2023/01/08 01:51:10;;;;;;;;;;;;;;;11.92;100.00;98254.50;5051627;28;20002;-74
2023/01/08 01:53:36;;;;;;;;;;;;;;;11.95;100.00;98262.09;5067231;28;19920;-73
2023/01/08 01:56:01;;;;;;;;;;;;;;;12.32;100.00;98262.84;5071724;28;20498;-73
2023/01/08 01:58:28;;;;;;;;;;;;;;;12.13;100.00;98243.13;5051351;28;19916;-73
2023/01/08 02:00:54;;;;;;;;;;;;;;;12.10;100.00;98258.75;5036551;28;19962;-73
2023/01/08 02:03:25;;;;;;;;;;;;;;;11.99;100.00;98268.75;5050464;28;19927;-73
2023/01/08 02:05:54;;;;;;;;;;;;;;;12.23;100.00;98271.06;5069887;28;19932;-73
2023/01/08 02:08:21;;;;;;;;;;;;;;;11.98;100.00;98268.88;5052232;28;19936;-73
2023/01/08 02:10:48;;;;;;;;;;;;;;;11.86;100.00;98280.56;5052031;28;19919;-73
2023/01/08 02:13:15;;;;;;;;;;;;;;;12.03;100.00;98290.94;5051277;28;19920;-74
2023/01/08 02:15:51;;;;;;;;;;;;;;;11.71;100.00;98282.97;5053030;28;19921;-74
2023/01/08 02:18:23;;;;;;;;;;;;;;;11.79;100.00;98284.34;5051464;28;19950;-74
2023/01/08 02:20:50;;;;;;;;;;;;;;;11.87;100.00;98288.28;5052851;28;19928;-74
2023/01/08 02:23:24;;;;;;;;;;;;;;;11.98;100.00;98289.50;5050619;28;19927;-74
2023/01/08 02:26:09;;;;;;;;;;;;;;;12.05;100.00;98302.03;5051406;28;20351;-74
2023/01/08 02:28:39;;;;;;;;;;;;;;;12.23;100.00;98294.28;5067275;28;20334;-74
2023/01/08 02:31:04;;;;;;;;;;;;;;;12.33;100.00;98285.16;5049950;28;20401;-74
2023/01/08 02:33:30;;;;;;;;;;;;;;;12.10;100.00;98266.50;5050159;28;19934;-74
2023/01/08 02:36:14;;;;;;;;;;;;;;;12.05;100.00;98260.72;5070084;28;19922;-74
2023/01/08 02:38:41;;;;;;;;;;;;;;;11.81;100.00;98256.75;5068264;28;19928;-74
2023/01/08 02:41:08;;;;;;;;;;;;;;;11.81;100.00;98260.16;5052052;28;20422;-74
2023/01/08 02:43:41;;;;;;;;;;;;;;;12.22;100.00;98262.44;5051403;28;20789;-74
2023/01/08 02:46:06;;;;;;;;;;;;;;;12.40;100.00;98263.25;5051879;28;19955;-74
2023/01/08 02:48:36;;;;;;;;;;;;;;;12.06;100.00;98240.91;5053776;28;20727;-74
2023/01/08 02:51:06;;;;;;;;;;;;;;;12.16;100.00;98241.28;5051009;28;19921;-74
2023/01/08 02:53:36;;;;;;;;;;;;;;;12.25;100.00;98240.84;5050725;28;19931;-74
2023/01/08 02:56:03;;;;;;;;;;;;;;;12.12;100.00;98231.13;5051476;28;20560;-74
2023/01/08 02:58:28;;;;;;;;;;;;;;;12.23;100.00;98233.16;5053672;28;19920;-74
2023/01/08 03:00:54;;;;;;;;;;;;;;;12.26;100.00;98222.66;5052248;28;20211;-74
2023/01/08 03:03:28;;;;;;;;;;;;;;;11.88;100.00;98222.00;5051795;28;19920;-74
2023/01/08 03:05:58;;;;;;;;;;;;;;;12.03;100.00;98230.75;5049467;28;19917;-74
2023/01/08 03:08:23;;;;;;;;;;;;;;;11.68;100.00;98230.72;5050181;28;19924;-74
2023/01/08 03:10:51;;;;;;;;;;;;;;;12.24;100.00;98250.31;5051865;28;19978;-74
2023/01/08 03:13:20;;;;;;;;;;;;;;;12.26;100.00;98238.16;5051188;28;20267;-74
2023/01/08 03:15:46;;;;;;;;;;;;;;;11.92;100.00;98213.22;5052761;28;20451;-74
2023/01/08 03:18:12;;;;;;;;;;;;;;;11.98;100.00;98228.41;5051350;28;19920;-74
2023/01/08 03:20:38;;;;;;;;;;;;;;;11.93;100.00;98222.66;5049679;28;19936;-74
2023/01/08 03:23:04;;;;;;;;;;;;;;;12.07;100.00;98227.94;5045487;28;20420;-74
2023/01/08 03:25:30;;;;;;;;;;;;;;;11.87;100.00;98236.66;5048171;28;20532;-74
2023/01/08 03:27:59;;;;;;;;;;;;;;;12.32;100.00;98250.75;5048668;28;19924;-74
2023/01/08 03:30:24;;;;;;;;;;;;;;;12.62;100.00;98233.75;5069560;28;20298;-74
2023/01/08 03:32:49;;;;;;;;;;;;;;;12.14;100.00;98218.13;5049681;28;19921;-74
2023/01/08 03:35:16;;;;;;;;;;;;;;;12.26;100.00;98221.84;5049509;28;19972;-74
2023/01/08 03:37:42;;;;;;;;;;;;;;;12.34;100.00;98223.13;5050423;28;19959;-74
2023/01/08 03:40:19;;;;;;;;;;;;;;;12.14;100.00;98202.66;5049966;28;19916;-74
2023/01/08 03:42:44;;;;;;;;;;;;;;;11.70;100.00;98198.78;5050492;28;19995;-74
2023/01/08 03:45:10;;;;;;;;;;;;;;;12.48;100.00;98226.75;5070625;28;20026;-74
2023/01/08 03:47:35;;;;;;;;;;;;;;;12.43;100.00;98208.91;5053959;28;19924;-75
2023/01/08 03:50:00;;;;;;;;;;;;;;;12.48;100.00;98204.31;5048490;28;20454;-74
2023/01/08 03:52:30;;;;;;;;;;;;;;;11.96;100.00;98183.78;5065704;28;19999;-75
2023/01/08 03:54:55;;;;;;;;;;;;;;;12.33;100.00;98202.53;5052062;28;19916;-74
2023/01/08 03:57:20;;;;;;;;;;;;;;;12.22;100.00;98207.41;5072765;28;19927;-74
2023/01/08 03:59:45;;;;;;;;;;;;;;;12.04;100.00;98202.28;5052311;28;19992;-74
2023/01/08 04:02:11;;;;;;;;;;;;;;;12.14;100.00;98218.97;5070871;28;19911;-74
2023/01/08 04:04:36;;;;;;;;;;;;;;;12.00;100.00;98205.09;5052099;28;19978;-74
2023/01/08 04:07:01;;;;;;;;;;;;;;;12.52;100.00;98241.13;5067984;28;19978;-73
2023/01/08 04:09:26;;;;;;;;;;;;;;;12.27;100.00;98210.59;5073056;28;19928;-74
2023/01/08 04:11:52;;;;;;;;;;;;;;;12.33;100.00;98210.28;5051410;28;19924;-74
2023/01/08 04:14:17;;;;;;;;;;;;;;;12.16;100.00;98213.75;5067923;28;20027;-74
2023/01/08 04:16:43;;;;;;;;;;;;;;;12.03;100.00;98210.94;5072421;28;20002;-74
2023/01/08 04:19:09;;;;;;;;;;;;;;;11.64;100.00;98224.88;5074087;28;19923;-74
2023/01/08 04:21:34;;;;;;;;;;;;;;;12.27;100.00;98270.81;5054784;28;19942;-74
2023/01/08 04:23:59;;;;;;;;;;;;;;;11.86;100.00;98255.63;5073927;28;20443;-74
2023/01/08 04:26:24;;;;;;;;;;;;;;;11.46;100.00;98274.75;5072432;28;19924;-74
2023/01/08 04:28:50;;;;;;;;;;;;;;;11.74;100.00;98300.06;5070788;28;19924;-75
2023/01/08 04:31:15;;;;;;;;;;;;;;;11.93;100.00;98307.78;5070546;28;19928;-74
2023/01/08 04:33:40;;;;;;;;;;;;;;;12.37;100.00;98332.31;5073982;28;19916;-74
2023/01/08 04:36:05;;;;;;;;;;;;;;;12.19;100.00;98297.94;5069537;28;19931;-74
2023/01/08 04:38:31;;;;;;;;;;;;;;;12.03;100.00;98303.00;5072987;28;20301;-75
2023/01/08 04:40:57;;;;;;;;;;;;;;;12.04;100.00;98315.84;5075533;28;19928;-75
2023/01/08 04:43:22;;;;;;;;;;;;;;;11.81;100.00;98323.81;5074021;28;19920;-74
2023/01/08 04:45:47;;;;;;;;;;;;;;;11.75;100.00;98334.44;5071901;28;19919;-75
2023/01/08 04:48:13;;;;;;;;;;;;;;;12.07;100.00;98338.91;5053754;28;19962;-75
2023/01/08 04:50:38;;;;;;;;;;;;;;;11.86;100.00;98332.16;5072015;28;19916;-75
2023/01/08 04:53:03;;;;;;;;;;;;;;;11.71;100.00;98337.16;5071775;28;19921;-74
2023/01/08 04:55:28;;;;;;;;;;;;;;;11.78;100.00;98344.59;5069069;28;19916;-74
2023/01/08 04:57:53;;;;;;;;;;;;;;;11.52;100.00;98341.50;5073770;28;19924;-75
2023/01/08 05:00:19;;;;;;;;;;;;;;;11.62;100.00;98358.22;5051879;28;19924;-75
2023/01/08 05:02:44;;;;;;;;;;;;;;;11.75;100.00;98363.66;5071827;28;19916;-74
2023/01/08 05:05:09;;;;;;;;;;;;;;;11.55;100.00;98359.41;5053472;28;19920;-75
2023/01/08 05:07:34;;;;;;;;;;;;;;;11.73;100.00;98362.88;5071662;28;19925;-74
2023/01/08 05:10:00;;;;;;;;;;;;;;;11.72;100.00;98362.06;5054659;28;19916;-75
2023/01/08 05:12:25;;;;;;;;;;;;;;;11.91;100.00;98367.19;5069263;28;19916;-75
2023/01/08 05:14:50;;;;;;;;;;;;;;;11.48;100.00;98347.72;5073538;28;19970;-74
2023/01/08 05:17:15;;;;;;;;;;;;;;;11.87;100.00;98367.38;5071574;28;19928;-75
2023/01/08 05:19:41;;;;;;;;;;;;;;;11.84;100.00;98363.22;5072956;28;20382;-74
2023/01/08 05:22:06;;;;;;;;;;;;;;;12.10;100.00;98356.81;5070874;28;19916;-75
2023/01/08 05:24:31;;;;;;;;;;;;;;;11.90;100.00;98344.03;5070377;28;19923;-75
2023/01/08 05:26:56;;;;;;;;;;;;;;;11.67;100.00;98324.47;5072148;28;19944;-74
2023/01/08 05:29:21;;;;;;;;;;;;;;;11.65;100.00;98329.69;5055233;28;19920;-75
2023/01/08 05:31:47;;;;;;;;;;;;;;;11.73;100.00;98327.59;5072340;28;19969;-74
2023/01/08 05:34:12;;;;;;;;;;;;;;;11.40;100.00;98324.00;5071176;28;19916;-75
2023/01/08 05:36:37;;;;;;;;;;;;;;;11.39;100.00;98342.97;5038188;28;19920;-75
2023/01/08 05:39:03;;;;;;;;;;;;;;;11.68;100.00;98349.38;5074686;28;20897;-75
2023/01/08 05:41:28;;;;;;;;;;;;;;;11.55;100.00;98338.78;5052450;28;20425;-75
2023/01/08 05:43:53;;;;;;;;;;;;;;;11.88;100.00;98344.13;5053024;28;19977;-75
2023/01/08 05:46:18;;;;;;;;;;;;;;;11.66;100.00;98322.81;5071130;28;20303;-75
2023/01/08 05:48:43;;;;;;;;;;;;;;;11.72;100.00;98325.94;5052612;28;20386;-75
2023/01/08 05:51:09;;;;;;;;;;;;;;;11.76;100.00;98320.63;5053024;28;20796;-74
2023/01/08 05:53:34;;;;;;;;;;;;;;;11.89;100.00;98314.84;5053608;28;19916;-74
2023/01/08 05:56:03;;;;;;;;;;;;;;;12.01;100.00;98295.34;5071118;28;19950;-74
2023/01/08 05:58:28;;;;;;;;;;;;;;;12.15;100.00;98284.31;5070411;28;20064;-74
2023/01/08 06:00:54;;;;;;;;;;;;;;;11.64;100.00;98244.69;5073564;28;19930;-74
2023/01/08 06:03:22;;;;;;;;;;;;;;;12.06;100.00;98262.38;5053864;28;19930;-74
2023/01/08 06:05:47;;;;;;;;;;;;;;;12.17;100.00;98243.78;5070790;28;20519;-74
2023/01/08 06:08:12;;;;;;;;;;;;;;;11.85;100.00;98228.13;5070458;28;19924;-74
2023/01/08 06:10:38;;;;;;;;;;;;;;;11.70;100.00;98234.91;5072030;28;19970;-75
2023/01/08 06:13:07;;;;;;;;;;;;;;;11.99;100.00;98244.72;5054898;28;19912;-75
2023/01/08 06:15:32;;;;;;;;;;;;;;;12.26;100.00;98255.41;5055431;28;20015;-74
2023/01/08 06:18:00;;;;;;;;;;;;;;;12.42;100.00;98229.63;5071123;28;20000;-75
2023/01/08 06:20:26;;;;;;;;;;;;;;;11.84;100.00;98220.50;5055064;28;19916;-75
2023/01/08 06:22:52;;;;;;;;;;;;;;;12.11;100.00;98239.78;5068976;28;19922;-75
2023/01/08 06:25:17;;;;;;;;;;;;;;;12.14;100.00;98244.78;5053868;28;20842;-75
2023/01/08 06:27:42;;;;;;;;;;;;;;;12.21;100.00;98239.31;5071132;28;19924;-75
2023/01/08 06:30:08;;;;;;;;;;;;;;;12.01;100.00;98224.81;5071234;28;19917;-75
2023/01/08 06:32:33;;;;;;;;;;;;;;;12.02;100.00;98229.94;5051943;28;19923;-75
2023/01/08 06:34:58;;;;;;;;;;;;;;;11.59;100.00;98239.75;5055523;28;20176;-75
2023/01/08 06:37:24;;;;;;;;;;;;;;;11.73;100.00;98260.53;5050787;28;19916;-75
2023/01/08 06:39:49;;;;;;;;;;;;;;;11.94;100.00;98265.59;5070780;28;19924;-75
2023/01/08 06:42:14;;;;;;;;;;;;;;;12.06;100.00;98252.06;5070273;28;19920;-74
2023/01/08 06:44:39;;;;;;;;;;;;;;;11.96;100.00;98261.19;5068235;28;19973;-75
2023/01/08 06:47:05;;;;;;;;;;;;;;;12.00;100.00;98241.25;5070892;28;19926;-74
2023/01/08 06:49:30;;;;;;;;;;;;;;;11.87;100.00;98246.13;5069567;28;19935;-75
2023/01/08 06:51:56;;;;;;;;;;;;;;;11.81;100.00;98251.59;5069835;28;19924;-74
2023/01/08 06:54:21;;;;;;;;;;;;;;;11.65;100.00;98251.50;5068627;28;20015;-75
2023/01/08 06:56:49;;;;;;;;;;;;;;;11.84;100.00;98248.88;5067164;28;19920;-74
2023/01/08 06:59:15;;;;;;;;;;;;;;;11.93;100.00;98243.28;5066823;28;20436;-75
2023/01/08 07:01:40;;;;;;;;;;;;;;;11.45;100.00;98224.94;5068357;28;19920;-75
2023/01/08 07:04:05;;;;;;;;;;;;;;;11.33;100.00;98234.97;5069653;28;20358;-75
2023/01/08 07:06:30;;;;;;;;;;;;;;;11.62;100.00;98242.16;5068680;28;20350;-75
2023/01/08 07:08:56;;;;;;;;;;;;;;;11.03;100.00;98232.94;5049098;28;19921;-75
2023/01/08 07:11:21;;;;;;;;;;;;;;;11.35;100.00;98249.47;5071698;28;19977;-75
2023/01/08 07:13:46;;;;;;;;;;;;;;;11.77;100.00;98250.06;5067219;28;19920;-75
2023/01/08 07:16:12;;;;;;;;;;;;;;;10.99;100.00;98221.09;5070555;28;19915;-74
2023/01/08 07:18:37;;;;;;;;;;;;;;;11.44;100.00;98245.63;5068429;28;20366;-75
2023/01/08 07:21:03;;;;;;;;;;;;;;;11.27;100.00;98242.09;5050064;28;20401;-75
2023/01/08 07:23:28;;;;;;;;;;;;;;;11.53;100.00;98247.75;5068550;28;19974;-74
2023/01/08 07:25:53;;;;;;;;;;;;;;;11.28;100.00;98243.75;5049921;28;19931;-74
2023/01/08 07:28:18;;;;;;;;;;;;;;;11.33;100.00;98246.13;5070505;28;19924;-75
2023/01/08 07:30:43;;;;;;;;;;;;;;;11.24;100.00;98247.41;5067449;28;19924;-74
2023/01/08 07:33:09;;;;;;;;;;;;;;;11.54;100.00;98248.59;5069815;28;19924;-75
2023/01/08 07:35:34;;;;;;;;;;;;;;;11.65;100.00;98247.16;5068981;28;19916;-73
2023/01/08 07:37:59;;;;;;;;;;;;;;;11.45;100.00;98224.13;5052452;28;19927;-75
2023/01/08 07:40:25;;;;;;;;;;;;;;;11.17;100.00;98240.84;5068414;28;19963;-74
2023/01/08 07:42:57;;;;;;;;;;;;;;;11.51;100.00;98270.22;5067067;28;19923;-75
2023/01/08 07:45:22;;;;;;;;;;;;;;;11.67;100.00;98253.09;5048407;28;19924;-74
2023/01/08 07:47:47;;;;;;;;;;;;;;;11.44;100.00;98245.63;5050629;28;19924;-75
2023/01/08 07:50:12;;;;;;;;;;;;;;;11.39;100.00;98247.59;5069238;28;19946;-74
2023/01/08 07:52:38;;;;;;;;;;;;;;;11.73;100.00;98249.38;5073793;28;19945;-75
2023/01/08 07:55:03;;;;;;;;;;;;;;;11.53;100.00;98227.13;5071738;28;20281;-75
2023/01/08 07:57:28;;;;;;;;;;;;;;;11.58;100.00;98225.16;5072972;28;20329;-75
2023/01/08 07:59:54;;;;;;;;;;;;;;;11.67;100.00;98229.88;5054508;28;19916;-75
2023/01/08 08:02:19;;;;;;;;;;;;;;;11.68;100.00;98210.09;5074181;28;20343;-74
2023/01/08 08:04:44;;;;;;;;;;;;;;;11.47;100.00;98191.31;5074160;28;19991;-75
2023/01/08 08:07:09;;;;;;;;;;;;;;;11.28;100.00;98196.53;5073125;28;19924;-75
2023/01/08 08:09:35;;;;;;;;;;;;;;;11.43;100.00;98200.97;5074215;28;19917;-74
2023/01/08 08:12:00;;;;;;;;;;;;;;;11.55;100.00;98199.53;5072606;28;19942;-75
2023/01/08 08:14:25;;;;;;;;;;;;;;;11.62;100.00;98198.31;5071915;28;19996;-75
2023/01/08 08:16:50;;;;;;;;;;;;;;;11.55;100.00;98196.97;5072617;28;19916;-74
2023/01/08 08:19:15;;;;;;;;;;;;;;;11.50;100.00;98199.75;5075204;28;19937;-74
2023/01/08 08:21:41;;;;;;;;;;;;;;;11.47;100.00;98202.50;5073832;28;20015;-74
2023/01/08 08:24:06;;;;;;;;;;;;;;;11.69;100.00;98201.44;5074640;28;20008;-73
2023/01/08 08:26:31;;;;;;;;;;;;;;;11.72;100.00;98212.44;5077271;28;19951;-74
2023/01/08 08:28:56;;;;;;;;;;;;;;;11.69;100.00;98212.56;5073058;28;19924;-75
2023/01/08 08:31:22;;;;;;;;;;;;;;;11.80;100.00;98219.78;5071950;28;19950;-76
2023/01/08 08:33:47;;;;;;;;;;;;;;;11.99;100.00;98217.16;5054402;28;19920;-75
2023/01/08 08:36:12;;;;;;;;;;;;;;;12.06;100.00;98215.94;5071857;28;19920;-75
2023/01/08 08:38:37;;;;;;;;;;;;;;;11.47;100.00;98219.69;5070486;28;19956;-76
2023/01/08 08:41:02;;;;;;;;;;;;;;;11.23;100.00;98240.56;5072113;28;19931;-76
2023/01/08 08:43:28;;;;;;;;;;;;;;;11.38;100.00;98288.00;5053985;28;20285;-75
2023/01/08 08:45:56;;;;;;;;;;;;;;;11.20;100.00;98306.88;5069772;28;19913;-76
2023/01/08 08:48:21;;;;;;;;;;;;;;;11.22;100.00;98323.97;5070766;28;19987;-76
2023/01/08 08:50:47;;;;;;;;;;;;;;;10.33;100.00;98320.13;5056151;28;19956;-74
2023/01/08 08:53:12;;;;;;;;;;;;;;;10.66;100.00;98347.91;5074396;28;19920;-74
2023/01/08 08:55:37;;;;;;;;;;;;;;;11.83;100.00;98389.91;5073902;28;19927;-74
2023/01/08 08:58:06;;;;;;;;;;;;;;;11.52;100.00;98351.81;5073623;28;19916;-75
2023/01/08 09:00:32;;;;;;;;;;;;;;;11.43;100.00;98344.53;5057315;28;19912;-76
2023/01/08 09:02:57;;;;;;;;;;;;;;;11.33;100.00;98338.09;5055681;28;20056;-76
2023/01/08 09:05:22;;;;;;;;;;;;;;;11.58;100.00;98330.91;5052010;28;19920;-76
2023/01/08 09:07:48;;;;;;;;;;;;;;;11.69;100.00;98305.44;5070747;28;20459;-75
2023/01/08 09:10:13;;;;;;;;;;;;;;;11.38;100.00;98271.69;5055050;28;19988;-75
2023/01/08 09:12:38;;;;;;;;;;;;;;;11.53;100.00;98247.75;5052493;28;19916;-76
2023/01/08 09:15:04;;;;;;;;;;;;;;;11.20;100.00;98220.13;5069531;28;20329;-75
2023/01/08 09:17:29;;;;;;;;;;;;;;;11.23;100.00;98201.09;5069246;28;20298;-75
2023/01/08 09:19:54;;;;;;;;;;;;;;;11.24;100.00;98167.53;5070349;28;19965;-76
2023/01/08 09:22:20;;;;;;;;;;;;;;;11.02;100.00;98151.41;5071133;28;19921;-75
2023/01/08 09:24:45;;;;;;;;;;;;;;;11.45;100.00;98142.44;5069803;28;19916;-76
2023/01/08 09:27:10;;;;;;;;;;;;;;;11.43;100.00;98133.94;5069264;28;20545;-75
2023/01/08 09:29:35;;;;;;;;;;;;;;;11.72;100.00;98135.06;5051865;28;20658;-76
2023/01/08 09:32:01;;;;;;;;;;;;;;;11.54;100.00;98115.38;5070662;28;20263;-76
2023/01/08 09:34:26;;;;;;;;;;;;;;;10.73;100.00;98093.53;5071795;28;19931;-76
2023/01/08 09:36:51;;;;;;;;;;;;;;;11.49;100.00;98117.31;5070115;28;20332;-76
2023/01/08 09:39:16;;;;;;;;;;;;;;;11.48;100.00;98106.19;5071087;28;19920;-76
2023/01/08 09:41:43;;;;;;;;;;;;;;;11.42;100.00;98095.34;5035398;28;19963;-76
2023/01/08 09:44:15;;;;;;;;;;;;;;;11.18;100.00;98087.91;5053527;28;19916;-76
2023/01/08 09:46:41;;;;;;;;;;;;;;;11.22;100.00;98093.72;5070422;28;20002;-76
2023/01/08 09:49:06;;;;;;;;;;;;;;;11.88;100.00;98105.91;5050697;28;20585;-76
2023/01/08 09:51:37;;;;;;;;;;;;;;;11.53;100.00;98080.16;5051712;28;20334;-76
2023/01/08 09:54:04;;;;;;;;;;;;;;;11.79;100.00;98084.00;5052207;28;20543;-76
2023/01/08 09:56:29;;;;;;;;;;;;;;;11.54;100.00;98066.38;5067987;28;20396;-76
2023/01/08 09:58:55;;;;;;;;;;;;;;;11.94;100.00;98072.06;5051280;28;19927;-76
2023/01/08 10:01:22;;;;;;;;;;;;;;;11.52;100.00;98066.44;5043367;28;19923;-76
2023/01/08 10:03:49;;;;;;;;;;;;;;;11.66;100.00;98062.31;5049916;28;19924;-76
2023/01/08 10:06:15;;;;;;;;;;;;;;;12.04;100.00;98056.94;5051730;28;20430;-75
2023/01/08 10:08:40;;;;;;;;;;;;;;;11.78;100.00;98051.38;5066935;28;19971;-76
2023/01/08 10:11:06;;;;;;;;;;;;;;;11.54;100.00;98034.56;5052923;28;20351;-76
2023/01/08 10:13:32;;;;;;;;;;;;;;;11.80;100.00;98046.13;5051450;28;19916;-76
2023/01/08 10:15:58;;;;;;;;;;;;;;;11.76;100.00;98034.31;5052494;28;19921;-76
2023/01/08 10:18:23;;;;;;;;;;;;;;;11.69;100.00;98026.88;5072305;28;20023;-76
2023/01/08 10:20:49;;;;;;;;;;;;;;;11.64;100.00;98018.56;5056573;28;20030;-76
2023/01/08 10:23:15;;;;;;;;;;;;;;;11.71;100.00;98019.91;5078621;28;20477;-76
2023/01/08 10:25:50;;;;;;;;;;;;;;;11.01;100.00;97992.56;5069886;28;19977;-76
2023/01/08 10:28:17;;;;;;;;;;;;;;;11.40;100.00;98014.66;5067107;28;19985;-75
2023/01/08 10:30:42;;;;;;;;;;;;;;;11.39;100.00;98013.00;5047628;28;20413;-75
2023/01/08 10:33:17;;;;;;;;;;;;;;;11.78;100.00;98024.75;5066174;28;19916;-75
2023/01/08 10:35:42;;;;;;;;;;;;;;;12.29;100.00;98025.47;5068013;28;19997;-75
2023/01/08 10:38:26;;;;;;;;;;;;;;;11.99;100.00;97992.66;5050043;28;19920;-75
2023/01/08 10:40:52;;;;;;;;;;;;;;;12.39;100.00;98005.16;5069897;28;19921;-75
2023/01/08 10:43:17;;;;;;;;;;;;;;;12.60;100.00;97990.22;5069778;28;19973;-75
2023/01/08 10:45:43;;;;;;;;;;;;;;;12.40;100.00;97971.50;5049796;28;19923;-75
2023/01/08 10:48:14;;;;;;;;;;;;;;;12.20;100.00;97964.03;5049692;28;20000;-75
2023/01/08 10:50:39;;;;;;;;;;;;;;;12.01;100.00;97970.19;5050758;28;20204;-75
2023/01/08 10:53:05;;;;;;;;;;;;;;;11.48;100.00;97966.94;5068861;28;20028;-75
2023/01/08 10:55:38;;;;;;;;;;;;;;;11.92;100.00;97999.06;5066959;28;20013;-75
2023/01/08 10:58:09;;;;;;;;;;;;;;;11.58;100.00;97998.25;5048467;28;19916;-75
2023/01/08 11:00:35;;;;;;;;;;;;;;;11.15;100.00;98000.44;5066160;28;20597;-74
2023/01/08 11:03:01;;;;;;;;;;;;;;;11.80;100.00;98034.06;5049229;28;20003;-75
2023/01/08 11:05:33;;;;;;;;;;;;;;;11.10;100.00;98018.69;5051223;28;19920;-75
2023/01/08 11:07:59;;;;;;;;;;;;;;;11.60;100.00;98053.16;5048817;28;20344;-75
2023/01/08 11:10:25;;;;;;;;;;;;;;;12.16;100.00;98052.84;5048276;28;19935;-75
2023/01/08 11:12:54;;;;;;;;;;;;;;;11.68;100.00;98032.97;5068175;28;19977;-75
2023/01/08 11:15:19;;;;;;;;;;;;;;;12.36;100.00;98055.19;5050065;28;20160;-75
2023/01/08 11:17:44;;;;;;;;;;;;;;;11.43;100.00;98019.69;5064745;28;19920;-75
2023/01/08 11:20:20;;;;;;;;;;;;;;;12.02;100.00;98033.81;5048276;28;19977;-75
2023/01/08 11:22:45;;;;;;;;;;;;;;;11.98;100.00;98032.28;5068021;28;19920;-76
2023/01/08 11:25:12;;;;;;;;;;;;;;;11.44;100.00;98018.75;5052328;28;19974;-75
2023/01/08 11:27:38;;;;;;;;;;;;;;;11.89;100.00;98036.19;5051352;28;19916;-75
2023/01/08 11:30:05;;;;;;;;;;;;;;;11.93;100.00;98023.97;5053428;28;19956;-75
2023/01/08 11:32:36;;;;;;;;;;;;;;;12.29;100.00;98025.47;5052974;28;19974;-75
2023/01/08 11:35:11;;;;;;;;;;;;;;;12.28;100.00;97998.81;5054334;28;19916;-75
2023/01/08 11:37:42;;;;;;;;;;;;;;;12.55;100.00;98017.13;5053150;28;19920;-75
2023/01/08 11:40:15;;;;;;;;;;;;;;;12.53;100.00;97990.53;5050440;28;19926;-75
2023/01/08 11:42:40;;;;;;;;;;;;;;;12.42;100.00;97959.31;5053965;28;19923;-75
2023/01/08 11:45:16;;;;;;;;;;;;;;;12.96;100.00;97954.50;5071748;28;20251;-75
2023/01/08 11:47:48;;;;;;;;;;;;;;;12.82;100.00;97931.22;5054107;28;19920;-75
2023/01/08 11:50:16;;;;;;;;;;;;;;;13.01;100.00;97905.13;5064434;28;19923;-75
2023/01/08 11:52:47;;;;;;;;;;;;;;;13.12;100.00;97891.56;5069366;28;20797;-75
2023/01/08 11:55:16;;;;;;;;;;;;;;;12.86;100.00;97865.50;5073811;28;19951;-75
2023/01/08 11:57:47;;;;;;;;;;;;;;;12.81;100.00;97862.38;5071589;28;19931;-75
2023/01/08 12:00:30;;;;;;;;;;;;;;;13.07;100.00;97854.81;5071435;28;19923;-75
2023/01/08 12:02:56;;;;;;;;;;;;;;;12.84;100.00;97828.63;5071600;28;19973;-75
2023/01/08 12:05:25;;;;;;;;;;;;;;;12.74;100.00;97835.25;5073437;28;19920;-76
2023/01/08 12:08:06;;;;;;;;;;;;;;;13.30;100.00;97818.09;5046596;28;19924;-76
2023/01/08 12:10:36;;;;;;;;;;;;;;;12.70;100.00;97797.59;5072736;28;19916;-76
2023/01/08 12:13:14;;;;;;;;;;;;;;;13.15;100.00;97808.66;5070048;28;20019;-76
2023/01/08 12:15:47;;;;;;;;;;;;;;;12.98;100.00;97797.59;5055695;28;20624;-76
2023/01/08 12:18:18;;;;;;;;;;;;;;;12.87;100.00;97797.44;5053927;28;20364;-76
2023/01/08 12:20:46;;;;;;;;;;;;;;;12.73;100.00;97810.34;5072260;28;19927;-76
2023/01/08 12:23:24;;;;;;;;;;;;;;;12.43;100.00;97816.41;5055210;28;19935;-74
2023/01/08 12:25:50;;;;;;;;;;;;;;;12.47;100.00;97812.72;5055673;28;19936;-75
2023/01/08 12:28:15;;;;;;;;;;;;;;;12.87;100.00;97812.09;5071107;28;19924;-75
2023/01/08 12:30:45;;;;;;;;;;;;;;;12.62;100.00;97807.59;5072878;28;19920;-75
2023/01/08 12:33:17;;;;;;;;;;;;;;;12.26;100.00;97801.06;5054013;28;19920;-75